sensor_id;sensor_type;location;lat;lon;timestamp;P1;durP1;ratioP1;P2;durP2;ratioP2
23046;SDS011;11691;51.462;6.902;2023-02-12T00:00:06;65.00;;;32.13;;
23046;SDS011;11691;51.462;6.902;2023-02-12T00:02:34;67.03;;;32.20;;
23046;SDS011;11691;51.462;6.902;2023-02-12T00:04:59;65.67;;;31.37;;
23046;SDS011;11691;51.462;6.902;2023-02-12T00:07:28;70.90;;;32.77;;
23046;SDS011;11691;51.462;6.902;2023-02-12T00:09:55;64.87;;;31.33;;
23046;SDS011;11691;51.462;6.902;2023-02-12T00:12:21;63.30;;;32.33;;
23046;SDS011;11691;51.462;6.902;2023-02-12T00:14:47;68.60;;;32.67;;
23046;SDS011;11691;51.462;6.902;2023-02-12T00:17:12;73.40;;;33.70;;
23046;SDS011;11691;51.462;6.902;2023-02-12T00:19:38;71.73;;;33.10;;
23046;SDS011;11691;51.462;6.902;2023-02-12T00:22:04;63.70;;;31.43;;
23046;SDS011;11691;51.462;6.902;2023-02-12T00:24:31;69.77;;;32.63;;
23046;SDS011;11691;51.462;6.902;2023-02-12T00:26:56;66.23;;;31.90;;
23046;SDS011;11691;51.462;6.902;2023-02-12T00:29:22;69.20;;;32.27;;
23046;SDS011;11691;51.462;6.902;2023-02-12T00:31:48;61.00;;;31.77;;
23046;SDS011;11691;51.462;6.902;2023-02-12T00:34:14;66.27;;;30.90;;
23046;SDS011;11691;51.462;6.902;2023-02-12T00:36:40;63.00;;;31.60;;
23046;SDS011;11691;51.462;6.902;2023-02-12T00:39:06;69.03;;;31.53;;
23046;SDS011;11691;51.462;6.902;2023-02-12T00:41:32;68.27;;;32.90;;
23046;SDS011;11691;51.462;6.902;2023-02-12T00:43:58;66.90;;;33.17;;
23046;SDS011;11691;51.462;6.902;2023-02-12T00:46:24;63.27;;;31.93;;
23046;SDS011;11691;51.462;6.902;2023-02-12T00:48:50;70.73;;;32.27;;
23046;SDS011;11691;51.462;6.902;2023-02-12T00:51:16;66.57;;;30.87;;
23046;SDS011;11691;51.462;6.902;2023-02-12T00:53:42;66.53;;;31.80;;
23046;SDS011;11691;51.462;6.902;2023-02-12T00:56:08;66.10;;;31.77;;
23046;SDS011;11691;51.462;6.902;2023-02-12T00:58:34;69.03;;;30.77;;
23046;SDS011;11691;51.462;6.902;2023-02-12T01:01:00;66.60;;;30.80;;
23046;SDS011;11691;51.462;6.902;2023-02-12T01:03:26;66.50;;;31.07;;
23046;SDS011;11691;51.462;6.902;2023-02-12T01:05:52;66.30;;;33.10;;
23046;SDS011;11691;51.462;6.902;2023-02-12T01:08:18;62.37;;;31.47;;
23046;SDS011;11691;51.462;6.902;2023-02-12T01:10:44;61.87;;;30.87;;
23046;SDS011;11691;51.462;6.902;2023-02-12T01:13:13;64.03;;;31.67;;
23046;SDS011;11691;51.462;6.902;2023-02-12T01:15:40;62.50;;;31.57;;
23046;SDS011;11691;51.462;6.902;2023-02-12T01:18:06;65.33;;;30.53;;
23046;SDS011;11691;51.462;6.902;2023-02-12T01:20:32;72.10;;;33.37;;
23046;SDS011;11691;51.462;6.902;2023-02-12T01:22:58;64.93;;;31.90;;
23046;SDS011;11691;51.462;6.902;2023-02-12T01:25:25;64.57;;;30.90;;
23046;SDS011;11691;51.462;6.902;2023-02-12T01:27:52;70.63;;;32.53;;
23046;SDS011;11691;51.462;6.902;2023-02-12T01:30:18;63.83;;;31.43;;
23046;SDS011;11691;51.462;6.902;2023-02-12T01:32:47;65.67;;;31.57;;
23046;SDS011;11691;51.462;6.902;2023-02-12T01:35:13;62.67;;;30.77;;
23046;SDS011;11691;51.462;6.902;2023-02-12T01:37:39;67.97;;;31.27;;
23046;SDS011;11691;51.462;6.902;2023-02-12T01:40:07;66.53;;;31.07;;
23046;SDS011;11691;51.462;6.902;2023-02-12T01:42:33;69.93;;;31.50;;
23046;SDS011;11691;51.462;6.902;2023-02-12T01:47:37;65.70;;;32.63;;
23046;SDS011;11691;51.462;6.902;2023-02-12T01:50:05;63.57;;;30.37;;
23046;SDS011;11691;51.462;6.902;2023-02-12T01:52:33;67.37;;;32.07;;
23046;SDS011;11691;51.462;6.902;2023-02-12T01:54:59;62.30;;;30.43;;
23046;SDS011;11691;51.462;6.902;2023-02-12T01:57:30;66.83;;;31.30;;
23046;SDS011;11691;51.462;6.902;2023-02-12T01:59:59;64.97;;;31.90;;
23046;SDS011;11691;51.462;6.902;2023-02-12T02:02:26;66.57;;;31.07;;
23046;SDS011;11691;51.462;6.902;2023-02-12T02:04:54;66.60;;;30.63;;
23046;SDS011;11691;51.462;6.902;2023-02-12T02:07:24;66.23;;;31.53;;
23046;SDS011;11691;51.462;6.902;2023-02-12T02:09:50;64.87;;;30.93;;
23046;SDS011;11691;51.462;6.902;2023-02-12T02:12:16;63.73;;;30.87;;
23046;SDS011;11691;51.462;6.902;2023-02-12T02:15:01;68.47;;;29.77;;
23046;SDS011;11691;51.462;6.902;2023-02-12T02:18:01;63.77;;;29.23;;
23046;SDS011;11691;51.462;6.902;2023-02-12T02:41:37;63.97;;;30.20;;
23046;SDS011;11691;51.462;6.902;2023-02-12T02:44:24;68.60;;;30.83;;
23046;SDS011;11691;51.462;6.902;2023-02-12T02:47:02;61.07;;;29.20;;
23046;SDS011;11691;51.462;6.902;2023-02-12T02:49:33;64.73;;;30.67;;
23046;SDS011;11691;51.462;6.902;2023-02-12T02:52:06;60.00;;;29.10;;
23046;SDS011;11691;51.462;6.902;2023-02-12T02:54:41;59.50;;;29.67;;
23046;SDS011;11691;51.462;6.902;2023-02-12T02:57:13;63.10;;;30.33;;
23046;SDS011;11691;51.462;6.902;2023-02-12T02:59:41;59.63;;;28.50;;
23046;SDS011;11691;51.462;6.902;2023-02-12T03:02:16;65.63;;;30.97;;
23046;SDS011;11691;51.462;6.902;2023-02-12T03:04:48;64.87;;;31.17;;
23046;SDS011;11691;51.462;6.902;2023-02-12T03:07:16;64.00;;;29.27;;
23046;SDS011;11691;51.462;6.902;2023-02-12T03:09:59;65.93;;;31.53;;
23046;SDS011;11691;51.462;6.902;2023-02-12T03:12:31;63.90;;;30.60;;
23046;SDS011;11691;51.462;6.902;2023-02-12T03:15:00;66.90;;;31.60;;
23046;SDS011;11691;51.462;6.902;2023-02-12T03:17:30;66.93;;;31.03;;
23046;SDS011;11691;51.462;6.902;2023-02-12T03:20:02;61.83;;;29.53;;
23046;SDS011;11691;51.462;6.902;2023-02-12T03:22:32;64.33;;;29.67;;
23046;SDS011;11691;51.462;6.902;2023-02-12T03:25:02;63.83;;;30.37;;
23046;SDS011;11691;51.462;6.902;2023-02-12T03:27:38;68.37;;;32.80;;
23046;SDS011;11691;51.462;6.902;2023-02-12T03:30:06;66.37;;;30.03;;
23046;SDS011;11691;51.462;6.902;2023-02-12T03:32:34;73.07;;;32.07;;
23046;SDS011;11691;51.462;6.902;2023-02-12T03:35:44;63.90;;;30.67;;
23046;SDS011;11691;51.462;6.902;2023-02-12T03:38:19;69.73;;;31.60;;
23046;SDS011;11691;51.462;6.902;2023-02-12T03:41:08;65.80;;;30.80;;
23046;SDS011;11691;51.462;6.902;2023-02-12T03:43:56;71.17;;;32.10;;
23046;SDS011;11691;51.462;6.902;2023-02-12T03:46:33;68.53;;;33.40;;
23046;SDS011;11691;51.462;6.902;2023-02-12T03:51:46;67.27;;;32.30;;
23046;SDS011;11691;51.462;6.902;2023-02-12T03:54:14;67.97;;;32.53;;
23046;SDS011;11691;51.462;6.902;2023-02-12T03:56:42;70.13;;;32.40;;
23046;SDS011;11691;51.462;6.902;2023-02-12T03:59:09;66.77;;;31.37;;
23046;SDS011;11691;51.462;6.902;2023-02-12T04:01:35;71.30;;;31.10;;
23046;SDS011;11691;51.462;6.902;2023-02-12T04:04:03;70.77;;;31.70;;
23046;SDS011;11691;51.462;6.902;2023-02-12T04:06:29;67.10;;;31.00;;
23046;SDS011;11691;51.462;6.902;2023-02-12T04:08:56;68.87;;;32.53;;
23046;SDS011;11691;51.462;6.902;2023-02-12T04:13:58;67.03;;;32.10;;
23046;SDS011;11691;51.462;6.902;2023-02-12T04:30:47;68.67;;;31.60;;
23046;SDS011;11691;51.462;6.902;2023-02-12T04:33:38;65.60;;;31.47;;
23046;SDS011;11691;51.462;6.902;2023-02-12T04:36:08;64.60;;;30.53;;
23046;SDS011;11691;51.462;6.902;2023-02-12T04:38:40;62.90;;;30.03;;
23046;SDS011;11691;51.462;6.902;2023-02-12T04:41:12;63.83;;;29.87;;
23046;SDS011;11691;51.462;6.902;2023-02-12T04:43:38;62.23;;;30.27;;
23046;SDS011;11691;51.462;6.902;2023-02-12T04:46:05;65.07;;;29.97;;
23046;SDS011;11691;51.462;6.902;2023-02-12T04:48:32;65.80;;;31.73;;
23046;SDS011;11691;51.462;6.902;2023-02-12T04:50:58;69.30;;;32.13;;
23046;SDS011;11691;51.462;6.902;2023-02-12T04:53:24;68.93;;;32.00;;
23046;SDS011;11691;51.462;6.902;2023-02-12T04:55:50;64.10;;;31.30;;
23046;SDS011;11691;51.462;6.902;2023-02-12T04:58:16;66.47;;;31.30;;
23046;SDS011;11691;51.462;6.902;2023-02-12T05:00:42;63.97;;;30.30;;
23046;SDS011;11691;51.462;6.902;2023-02-12T05:03:09;70.00;;;33.00;;
23046;SDS011;11691;51.462;6.902;2023-02-12T05:05:35;76.70;;;32.33;;
23046;SDS011;11691;51.462;6.902;2023-02-12T05:08:01;66.67;;;32.10;;
23046;SDS011;11691;51.462;6.902;2023-02-12T05:10:27;69.93;;;32.70;;
23046;SDS011;11691;51.462;6.902;2023-02-12T05:12:53;67.07;;;30.80;;
23046;SDS011;11691;51.462;6.902;2023-02-12T05:15:19;72.43;;;31.43;;
23046;SDS011;11691;51.462;6.902;2023-02-12T05:17:46;67.53;;;31.17;;
23046;SDS011;11691;51.462;6.902;2023-02-12T05:20:12;65.43;;;31.07;;
23046;SDS011;11691;51.462;6.902;2023-02-12T05:22:38;62.90;;;29.13;;
23046;SDS011;11691;51.462;6.902;2023-02-12T05:25:05;61.30;;;30.20;;
23046;SDS011;11691;51.462;6.902;2023-02-12T05:27:31;65.50;;;30.93;;
23046;SDS011;11691;51.462;6.902;2023-02-12T05:29:57;60.70;;;29.97;;
23046;SDS011;11691;51.462;6.902;2023-02-12T05:32:23;67.23;;;30.90;;
23046;SDS011;11691;51.462;6.902;2023-02-12T05:34:49;71.47;;;30.87;;
23046;SDS011;11691;51.462;6.902;2023-02-12T05:37:15;65.93;;;30.43;;
23046;SDS011;11691;51.462;6.902;2023-02-12T05:39:41;63.40;;;28.53;;
23046;SDS011;11691;51.462;6.902;2023-02-12T05:42:07;65.03;;;30.53;;
23046;SDS011;11691;51.462;6.902;2023-02-12T05:44:33;63.60;;;31.40;;
23046;SDS011;11691;51.462;6.902;2023-02-12T05:46:59;60.53;;;30.77;;
23046;SDS011;11691;51.462;6.902;2023-02-12T05:49:25;63.63;;;28.47;;
23046;SDS011;11691;51.462;6.902;2023-02-12T05:51:51;59.97;;;28.70;;
23046;SDS011;11691;51.462;6.902;2023-02-12T05:54:17;64.93;;;29.50;;
23046;SDS011;11691;51.462;6.902;2023-02-12T05:56:44;60.57;;;29.43;;
23046;SDS011;11691;51.462;6.902;2023-02-12T05:59:12;62.27;;;29.20;;
23046;SDS011;11691;51.462;6.902;2023-02-12T06:01:44;65.03;;;30.67;;
23046;SDS011;11691;51.462;6.902;2023-02-12T06:04:15;59.43;;;29.30;;
23046;SDS011;11691;51.462;6.902;2023-02-12T06:06:42;60.90;;;28.10;;
23046;SDS011;11691;51.462;6.902;2023-02-12T06:09:09;60.07;;;28.40;;
23046;SDS011;11691;51.462;6.902;2023-02-12T06:11:35;56.43;;;28.00;;
23046;SDS011;11691;51.462;6.902;2023-02-12T06:14:02;59.70;;;29.33;;
23046;SDS011;11691;51.462;6.902;2023-02-12T06:16:29;55.87;;;30.10;;
23046;SDS011;11691;51.462;6.902;2023-02-12T06:18:55;53.40;;;29.00;;
23046;SDS011;11691;51.462;6.902;2023-02-12T06:21:22;60.87;;;30.13;;
23046;SDS011;11691;51.462;6.902;2023-02-12T06:23:48;63.80;;;29.53;;
23046;SDS011;11691;51.462;6.902;2023-02-12T06:26:15;58.27;;;28.53;;
23046;SDS011;11691;51.462;6.902;2023-02-12T06:28:41;58.07;;;29.27;;
23046;SDS011;11691;51.462;6.902;2023-02-12T06:31:16;61.50;;;29.80;;
23046;SDS011;11691;51.462;6.902;2023-02-12T06:33:43;60.00;;;28.57;;
23046;SDS011;11691;51.462;6.902;2023-02-12T06:36:09;64.37;;;28.63;;
23046;SDS011;11691;51.462;6.902;2023-02-12T06:38:35;57.33;;;28.20;;
23046;SDS011;11691;51.462;6.902;2023-02-12T06:41:01;63.20;;;29.43;;
23046;SDS011;11691;51.462;6.902;2023-02-12T06:43:27;57.93;;;29.20;;
23046;SDS011;11691;51.462;6.902;2023-02-12T06:45:53;60.27;;;28.97;;
23046;SDS011;11691;51.462;6.902;2023-02-12T06:48:19;57.63;;;28.80;;
23046;SDS011;11691;51.462;6.902;2023-02-12T06:50:45;58.60;;;28.57;;
23046;SDS011;11691;51.462;6.902;2023-02-12T06:53:11;59.53;;;27.93;;
23046;SDS011;11691;51.462;6.902;2023-02-12T06:55:37;58.87;;;29.70;;
23046;SDS011;11691;51.462;6.902;2023-02-12T06:58:03;60.33;;;29.30;;
23046;SDS011;11691;51.462;6.902;2023-02-12T07:00:29;61.73;;;29.13;;
23046;SDS011;11691;51.462;6.902;2023-02-12T07:02:56;61.20;;;29.13;;
23046;SDS011;11691;51.462;6.902;2023-02-12T07:05:22;59.97;;;29.27;;
23046;SDS011;11691;51.462;6.902;2023-02-12T07:07:49;65.03;;;31.20;;
23046;SDS011;11691;51.462;6.902;2023-02-12T07:10:15;60.83;;;29.43;;
23046;SDS011;11691;51.462;6.902;2023-02-12T07:12:41;61.50;;;29.83;;
23046;SDS011;11691;51.462;6.902;2023-02-12T07:15:07;59.37;;;28.80;;
23046;SDS011;11691;51.462;6.902;2023-02-12T07:17:34;58.67;;;28.03;;
23046;SDS011;11691;51.462;6.902;2023-02-12T07:20:00;59.13;;;29.07;;
23046;SDS011;11691;51.462;6.902;2023-02-12T07:22:26;61.70;;;29.97;;
23046;SDS011;11691;51.462;6.902;2023-02-12T07:24:52;63.10;;;30.20;;
23046;SDS011;11691;51.462;6.902;2023-02-12T07:27:18;57.47;;;28.50;;
23046;SDS011;11691;51.462;6.902;2023-02-12T07:29:44;55.47;;;27.83;;
23046;SDS011;11691;51.462;6.902;2023-02-12T07:32:10;62.97;;;28.83;;
23046;SDS011;11691;51.462;6.902;2023-02-12T07:34:36;61.20;;;29.30;;
23046;SDS011;11691;51.462;6.902;2023-02-12T07:37:02;65.37;;;30.50;;
23046;SDS011;11691;51.462;6.902;2023-02-12T07:39:28;59.03;;;29.30;;
23046;SDS011;11691;51.462;6.902;2023-02-12T07:41:55;60.87;;;29.17;;
23046;SDS011;11691;51.462;6.902;2023-02-12T07:44:20;62.43;;;29.77;;
23046;SDS011;11691;51.462;6.902;2023-02-12T07:46:47;61.47;;;29.63;;
23046;SDS011;11691;51.462;6.902;2023-02-12T07:49:15;61.33;;;30.20;;
23046;SDS011;11691;51.462;6.902;2023-02-12T07:51:41;59.53;;;29.07;;
23046;SDS011;11691;51.462;6.902;2023-02-12T07:54:08;60.27;;;29.80;;
23046;SDS011;11691;51.462;6.902;2023-02-12T07:56:35;61.00;;;31.13;;
23046;SDS011;11691;51.462;6.902;2023-02-12T07:59:07;59.07;;;29.47;;
23046;SDS011;11691;51.462;6.902;2023-02-12T08:01:38;68.50;;;33.97;;
23046;SDS011;11691;51.462;6.902;2023-02-12T08:04:07;62.57;;;29.33;;
23046;SDS011;11691;51.462;6.902;2023-02-12T08:06:35;58.50;;;28.67;;
23046;SDS011;11691;51.462;6.902;2023-02-12T08:09:03;61.67;;;28.87;;
23046;SDS011;11691;51.462;6.902;2023-02-12T08:11:31;58.17;;;28.43;;
23046;SDS011;11691;51.462;6.902;2023-02-12T08:13:57;63.30;;;28.53;;
23046;SDS011;11691;51.462;6.902;2023-02-12T08:16:25;61.90;;;30.57;;
23046;SDS011;11691;51.462;6.902;2023-02-12T08:18:52;57.53;;;28.70;;
23046;SDS011;11691;51.462;6.902;2023-02-12T08:21:19;57.70;;;28.87;;
23046;SDS011;11691;51.462;6.902;2023-02-12T08:23:46;67.70;;;30.43;;
23046;SDS011;11691;51.462;6.902;2023-02-12T08:28:45;54.27;;;27.73;;
23046;SDS011;11691;51.462;6.902;2023-02-12T08:31:17;55.70;;;28.67;;
23046;SDS011;11691;51.462;6.902;2023-02-12T08:33:44;65.93;;;30.77;;
23046;SDS011;11691;51.462;6.902;2023-02-12T08:36:12;62.13;;;29.90;;
23046;SDS011;11691;51.462;6.902;2023-02-12T08:38:39;57.40;;;28.70;;
23046;SDS011;11691;51.462;6.902;2023-02-12T08:41:09;57.17;;;28.00;;
23046;SDS011;11691;51.462;6.902;2023-02-12T08:43:37;55.03;;;27.73;;
23046;SDS011;11691;51.462;6.902;2023-02-12T08:46:04;58.47;;;28.63;;
23046;SDS011;11691;51.462;6.902;2023-02-12T08:48:35;55.50;;;28.03;;
23046;SDS011;11691;51.462;6.902;2023-02-12T08:51:20;59.10;;;28.03;;
23046;SDS011;11691;51.462;6.902;2023-02-12T08:53:50;57.13;;;28.27;;
23046;SDS011;11691;51.462;6.902;2023-02-12T08:56:16;58.40;;;28.35;;
23046;SDS011;11691;51.462;6.902;2023-02-12T08:58:42;50.67;;;28.27;;
23046;SDS011;11691;51.462;6.902;2023-02-12T09:01:10;57.07;;;27.50;;
23046;SDS011;11691;51.462;6.902;2023-02-12T09:03:36;56.50;;;27.47;;
23046;SDS011;11691;51.462;6.902;2023-02-12T09:06:02;55.27;;;28.13;;
23046;SDS011;11691;51.462;6.902;2023-02-12T09:08:29;57.10;;;27.83;;
23046;SDS011;11691;51.462;6.902;2023-02-12T09:10:54;48.67;;;26.35;;
23046;SDS011;11691;51.462;6.902;2023-02-12T09:13:20;53.87;;;27.13;;
23046;SDS011;11691;51.462;6.902;2023-02-12T09:15:46;51.47;;;27.53;;
23046;SDS011;11691;51.462;6.902;2023-02-12T09:18:12;53.50;;;26.23;;
23046;SDS011;11691;51.462;6.902;2023-02-12T09:20:40;51.20;;;26.30;;
23046;SDS011;11691;51.462;6.902;2023-02-12T09:23:07;48.97;;;26.80;;
23046;SDS011;11691;51.462;6.902;2023-02-12T09:25:34;54.77;;;28.03;;
23046;SDS011;11691;51.462;6.902;2023-02-12T09:28:03;50.85;;;26.40;;
23046;SDS011;11691;51.462;6.902;2023-02-12T09:30:29;51.22;;;27.88;;
23046;SDS011;11691;51.462;6.902;2023-02-12T09:32:55;52.17;;;27.27;;
23046;SDS011;11691;51.462;6.902;2023-02-12T09:35:21;53.28;;;28.00;;
23046;SDS011;11691;51.462;6.902;2023-02-12T09:37:47;52.67;;;28.05;;
23046;SDS011;11691;51.462;6.902;2023-02-12T09:40:21;51.97;;;27.25;;
23046;SDS011;11691;51.462;6.902;2023-02-12T09:45:47;45.75;;;25.27;;
23046;SDS011;11691;51.462;6.902;2023-02-12T09:48:33;50.30;;;25.73;;
23046;SDS011;11691;51.462;6.902;2023-02-12T09:51:33;49.75;;;25.55;;
23046;SDS011;11691;51.462;6.902;2023-02-12T09:54:10;47.92;;;25.70;;
23046;SDS011;11691;51.462;6.902;2023-02-12T09:56:37;42.08;;;23.00;;
23046;SDS011;11691;51.462;6.902;2023-02-12T09:59:05;43.78;;;23.45;;
23046;SDS011;11691;51.462;6.902;2023-02-12T10:01:31;42.78;;;23.15;;
23046;SDS011;11691;51.462;6.902;2023-02-12T10:03:57;41.40;;;22.88;;
23046;SDS011;11691;51.462;6.902;2023-02-12T10:06:28;44.08;;;23.13;;
23046;SDS011;11691;51.462;6.902;2023-02-12T10:22:28;45.10;;;23.33;;
23046;SDS011;11691;51.462;6.902;2023-02-12T10:28:10;37.90;;;21.52;;
23046;SDS011;11691;51.462;6.902;2023-02-12T10:30:39;40.38;;;22.40;;
23046;SDS011;11691;51.462;6.902;2023-02-12T10:33:14;42.65;;;23.27;;
23046;SDS011;11691;51.462;6.902;2023-02-12T10:35:47;38.80;;;21.98;;
23046;SDS011;11691;51.462;6.902;2023-02-12T10:38:22;38.30;;;21.55;;
23046;SDS011;11691;51.462;6.902;2023-02-12T10:40:52;38.15;;;21.67;;
23046;SDS011;11691;51.462;6.902;2023-02-12T10:43:21;43.25;;;23.02;;
23046;SDS011;11691;51.462;6.902;2023-02-12T10:45:48;41.78;;;23.83;;
23046;SDS011;11691;51.462;6.902;2023-02-12T10:50:56;32.88;;;19.50;;
23046;SDS011;11691;51.462;6.902;2023-02-12T10:53:29;34.72;;;19.42;;
23046;SDS011;11691;51.462;6.902;2023-02-12T10:58:34;42.83;;;21.60;;
23046;SDS011;11691;51.462;6.902;2023-02-12T11:01:00;35.65;;;20.58;;
23046;SDS011;11691;51.462;6.902;2023-02-12T11:03:29;37.95;;;21.35;;
23046;SDS011;11691;51.462;6.902;2023-02-12T11:06:12;36.22;;;21.88;;
23046;SDS011;11691;51.462;6.902;2023-02-12T11:08:38;36.65;;;21.13;;
23046;SDS011;11691;51.462;6.902;2023-02-12T11:11:07;40.50;;;22.65;;
23046;SDS011;11691;51.462;6.902;2023-02-12T11:13:33;38.40;;;22.40;;
23046;SDS011;11691;51.462;6.902;2023-02-12T11:16:00;38.10;;;21.73;;
23046;SDS011;11691;51.462;6.902;2023-02-12T11:18:27;35.35;;;21.33;;
23046;SDS011;11691;51.462;6.902;2023-02-12T11:23:37;40.25;;;22.38;;
23046;SDS011;11691;51.462;6.902;2023-02-12T11:26:21;36.15;;;21.00;;
23046;SDS011;11691;51.462;6.902;2023-02-12T11:28:54;37.17;;;21.73;;
23046;SDS011;11691;51.462;6.902;2023-02-12T11:31:26;36.00;;;21.80;;
23046;SDS011;11691;51.462;6.902;2023-02-12T11:36:42;37.90;;;22.30;;
23046;SDS011;11691;51.462;6.902;2023-02-12T11:41:47;40.25;;;23.13;;
23046;SDS011;11691;51.462;6.902;2023-02-12T11:46:48;34.95;;;19.92;;
23046;SDS011;11691;51.462;6.902;2023-02-12T11:49:27;36.00;;;20.75;;
23046;SDS011;11691;51.462;6.902;2023-02-12T11:51:54;35.20;;;20.77;;
23046;SDS011;11691;51.462;6.902;2023-02-12T11:54:23;38.08;;;20.55;;
23046;SDS011;11691;51.462;6.902;2023-02-12T11:56:49;34.58;;;19.65;;
23046;SDS011;11691;51.462;6.902;2023-02-12T11:59:37;37.22;;;21.52;;
23046;SDS011;11691;51.462;6.902;2023-02-12T12:02:22;36.20;;;20.33;;
23046;SDS011;11691;51.462;6.902;2023-02-12T12:04:52;38.13;;;21.25;;
23046;SDS011;11691;51.462;6.902;2023-02-12T12:07:24;35.90;;;19.75;;
23046;SDS011;11691;51.462;6.902;2023-02-12T12:10:15;33.10;;;19.55;;
23046;SDS011;11691;51.462;6.902;2023-02-12T12:12:52;37.95;;;21.67;;
23046;SDS011;11691;51.462;6.902;2023-02-12T12:15:22;39.03;;;20.65;;
23046;SDS011;11691;51.462;6.902;2023-02-12T12:21:17;38.13;;;19.63;;
23046;SDS011;11691;51.462;6.902;2023-02-12T12:23:55;32.30;;;18.45;;
23046;SDS011;11691;51.462;6.902;2023-02-12T12:26:29;36.55;;;19.10;;
23046;SDS011;11691;51.462;6.902;2023-02-12T12:33:59;38.10;;;21.02;;
23046;SDS011;11691;51.462;6.902;2023-02-12T12:45:02;35.60;;;19.75;;
23046;SDS011;11691;51.462;6.902;2023-02-12T12:54:08;34.45;;;19.77;;
23046;SDS011;11691;51.462;6.902;2023-02-12T13:07:06;38.38;;;19.00;;
23046;SDS011;11691;51.462;6.902;2023-02-12T13:12:18;32.40;;;18.92;;
23046;SDS011;11691;51.462;6.902;2023-02-12T13:22:44;35.78;;;19.52;;
23046;SDS011;11691;51.462;6.902;2023-02-12T13:25:33;36.10;;;20.25;;
23046;SDS011;11691;51.462;6.902;2023-02-12T13:28:02;31.55;;;18.50;;
23046;SDS011;11691;51.462;6.902;2023-02-12T13:30:37;35.80;;;19.20;;
23046;SDS011;11691;51.462;6.902;2023-02-12T13:33:17;35.38;;;18.95;;
23046;SDS011;11691;51.462;6.902;2023-02-12T13:36:05;36.22;;;19.73;;
23046;SDS011;11691;51.462;6.902;2023-02-12T13:38:35;33.13;;;18.73;;
23046;SDS011;11691;51.462;6.902;2023-02-12T13:41:06;37.67;;;19.70;;
23046;SDS011;11691;51.462;6.902;2023-02-12T13:49:14;35.25;;;18.98;;
23046;SDS011;11691;51.462;6.902;2023-02-12T13:51:30;37.05;;;19.63;;
23046;SDS011;11691;51.462;6.902;2023-02-12T13:56:42;37.72;;;19.77;;
23046;SDS011;11691;51.462;6.902;2023-02-12T14:01:53;34.33;;;18.42;;
23046;SDS011;11691;51.462;6.902;2023-02-12T14:04:26;34.80;;;19.05;;
23046;SDS011;11691;51.462;6.902;2023-02-12T14:06:56;36.75;;;18.90;;
23046;SDS011;11691;51.462;6.902;2023-02-12T14:09:26;31.45;;;18.88;;
23046;SDS011;11691;51.462;6.902;2023-02-12T14:12:03;40.33;;;21.50;;
23046;SDS011;11691;51.462;6.902;2023-02-12T14:14:35;33.05;;;18.73;;
23046;SDS011;11691;51.462;6.902;2023-02-12T14:24:51;32.30;;;18.15;;
23046;SDS011;11691;51.462;6.902;2023-02-12T14:37:53;37.63;;;19.75;;
23046;SDS011;11691;51.462;6.902;2023-02-12T14:42:58;33.92;;;19.25;;
23046;SDS011;11691;51.462;6.902;2023-02-12T14:45:26;34.78;;;19.60;;
23046;SDS011;11691;51.462;6.902;2023-02-12T14:47:53;35.50;;;20.67;;
23046;SDS011;11691;51.462;6.902;2023-02-12T14:50:21;37.35;;;19.52;;
23046;SDS011;11691;51.462;6.902;2023-02-12T14:52:50;41.67;;;20.98;;
23046;SDS011;11691;51.462;6.902;2023-02-12T14:57:44;38.55;;;19.90;;
23046;SDS011;11691;51.462;6.902;2023-02-12T15:02:59;45.28;;;22.83;;
23046;SDS011;11691;51.462;6.902;2023-02-12T15:07:54;41.35;;;22.05;;
23046;SDS011;11691;51.462;6.902;2023-02-12T15:10:23;39.17;;;20.83;;
23046;SDS011;11691;51.462;6.902;2023-02-12T15:12:56;41.00;;;21.05;;
23046;SDS011;11691;51.462;6.902;2023-02-12T15:15:27;35.75;;;20.60;;
23046;SDS011;11691;51.462;6.902;2023-02-12T15:18:01;43.45;;;22.27;;
23046;SDS011;11691;51.462;6.902;2023-02-12T15:20:32;41.20;;;21.65;;
23046;SDS011;11691;51.462;6.902;2023-02-12T15:23:24;38.85;;;20.30;;
23046;SDS011;11691;51.462;6.902;2023-02-12T15:25:50;41.35;;;20.85;;
23046;SDS011;11691;51.462;6.902;2023-02-12T15:28:18;39.20;;;20.73;;
23046;SDS011;11691;51.462;6.902;2023-02-12T15:30:48;42.53;;;22.02;;
23046;SDS011;11691;51.462;6.902;2023-02-12T15:33:19;37.83;;;21.73;;
23046;SDS011;11691;51.462;6.902;2023-02-12T15:35:52;41.00;;;22.35;;
23046;SDS011;11691;51.462;6.902;2023-02-12T15:38:30;41.78;;;20.55;;
23046;SDS011;11691;51.462;6.902;2023-02-12T15:40:58;40.28;;;20.90;;
23046;SDS011;11691;51.462;6.902;2023-02-12T15:43:26;34.80;;;19.85;;
23046;SDS011;11691;51.462;6.902;2023-02-12T15:45:55;35.20;;;18.95;;
23046;SDS011;11691;51.462;6.902;2023-02-12T15:48:22;32.90;;;19.50;;
23046;SDS011;11691;51.462;6.902;2023-02-12T15:53:38;40.45;;;19.85;;
23046;SDS011;11691;51.462;6.902;2023-02-12T15:56:04;39.00;;;19.85;;
23046;SDS011;11691;51.462;6.902;2023-02-12T16:01:06;37.95;;;20.35;;
23046;SDS011;11691;51.462;6.902;2023-02-12T16:06:02;39.63;;;21.33;;
23046;SDS011;11691;51.462;6.902;2023-02-12T16:08:42;39.40;;;21.27;;
23046;SDS011;11691;51.462;6.902;2023-02-12T16:11:10;36.85;;;20.08;;
23046;SDS011;11691;51.462;6.902;2023-02-12T16:13:38;33.00;;;18.17;;
23046;SDS011;11691;51.462;6.902;2023-02-12T16:18:38;41.53;;;21.65;;
23046;SDS011;11691;51.462;6.902;2023-02-12T16:23:46;36.78;;;20.08;;
23046;SDS011;11691;51.462;6.902;2023-02-12T16:26:19;36.92;;;19.48;;
23046;SDS011;11691;51.462;6.902;2023-02-12T16:28:46;38.97;;;20.27;;
23046;SDS011;11691;51.462;6.902;2023-02-12T16:31:13;38.47;;;21.20;;
23046;SDS011;11691;51.462;6.902;2023-02-12T16:36:14;38.63;;;19.58;;
23046;SDS011;11691;51.462;6.902;2023-02-12T16:38:54;40.30;;;21.38;;
23046;SDS011;11691;51.462;6.902;2023-02-12T16:41:28;38.17;;;20.70;;
23046;SDS011;11691;51.462;6.902;2023-02-12T16:46:24;36.53;;;20.73;;
23046;SDS011;11691;51.462;6.902;2023-02-12T16:48:51;37.63;;;21.23;;
23046;SDS011;11691;51.462;6.902;2023-02-12T16:51:30;42.63;;;22.10;;
23046;SDS011;11691;51.462;6.902;2023-02-12T16:53:57;41.30;;;21.80;;
23046;SDS011;11691;51.462;6.902;2023-02-12T16:56:28;41.60;;;22.42;;
23046;SDS011;11691;51.462;6.902;2023-02-12T16:58:56;43.00;;;21.42;;
23046;SDS011;11691;51.462;6.902;2023-02-12T17:01:24;43.95;;;22.60;;
23046;SDS011;11691;51.462;6.902;2023-02-12T17:03:54;39.63;;;21.25;;
23046;SDS011;11691;51.462;6.902;2023-02-12T17:06:22;39.00;;;21.63;;
23046;SDS011;11691;51.462;6.902;2023-02-12T17:08:49;39.15;;;22.58;;
23046;SDS011;11691;51.462;6.902;2023-02-12T17:11:15;42.03;;;22.48;;
23046;SDS011;11691;51.462;6.902;2023-02-12T17:13:45;38.55;;;21.50;;
23046;SDS011;11691;51.462;6.902;2023-02-12T17:16:12;39.58;;;22.23;;
23046;SDS011;11691;51.462;6.902;2023-02-12T17:18:38;39.70;;;21.85;;
23046;SDS011;11691;51.462;6.902;2023-02-12T17:21:05;36.43;;;20.50;;
23046;SDS011;11691;51.462;6.902;2023-02-12T17:23:36;43.08;;;24.23;;
23046;SDS011;11691;51.462;6.902;2023-02-12T17:26:02;42.70;;;22.83;;
23046;SDS011;11691;51.462;6.902;2023-02-12T17:28:29;37.40;;;20.67;;
23046;SDS011;11691;51.462;6.902;2023-02-12T17:30:56;41.88;;;21.90;;
23046;SDS011;11691;51.462;6.902;2023-02-12T17:33:22;40.40;;;21.65;;
23046;SDS011;11691;51.462;6.902;2023-02-12T17:35:48;38.88;;;21.60;;